sensor_id;sensor_type;location;lat;lon;timestamp;temperature;humidity
46283;DHT22;32017;43.700;11.820;2023-02-15T00:02:08;1.10;99.90
46283;DHT22;32017;43.700;11.820;2023-02-15T00:04:27;1.20;99.90
46283;DHT22;32017;43.700;11.820;2023-02-15T00:07:05;1.30;99.90
46283;DHT22;32017;43.700;11.820;2023-02-15T00:09:24;1.30;99.90
46283;DHT22;32017;43.700;11.820;2023-02-15T00:11:45;1.30;99.90
46283;DHT22;32017;43.700;11.820;2023-02-15T00:14:19;1.40;99.90
46283;DHT22;32017;43.700;11.820;2023-02-15T00:16:42;1.40;99.90
46283;DHT22;32017;43.700;11.820;2023-02-15T00:19:03;1.20;99.90
46283;DHT22;32017;43.700;11.820;2023-02-15T00:21:23;1.00;99.90
46283;DHT22;32017;43.700;11.820;2023-02-15T00:23:43;0.60;99.90
46283;DHT22;32017;43.700;11.820;2023-02-15T00:26:10;0.20;99.90
46283;DHT22;32017;43.700;11.820;2023-02-15T00:28:30;-0.10;99.90
46283;DHT22;32017;43.700;11.820;2023-02-15T00:30:50;-0.10;99.90
46283;DHT22;32017;43.700;11.820;2023-02-15T00:33:10;-0.20;99.90
46283;DHT22;32017;43.700;11.820;2023-02-15T00:35:30;-0.20;99.90
46283;DHT22;32017;43.700;11.820;2023-02-15T00:37:50;-0.10;99.90
46283;DHT22;32017;43.700;11.820;2023-02-15T00:40:12;0.00;99.90
46283;DHT22;32017;43.700;11.820;2023-02-15T00:42:31;0.10;99.90
46283;DHT22;32017;43.700;11.820;2023-02-15T00:44:51;0.10;99.90
46283;DHT22;32017;43.700;11.820;2023-02-15T00:47:11;0.10;99.90
46283;DHT22;32017;43.700;11.820;2023-02-15T00:49:31;0.10;99.90
46283;DHT22;32017;43.700;11.820;2023-02-15T00:51:51;0.10;99.90
46283;DHT22;32017;43.700;11.820;2023-02-15T00:54:11;0.00;99.90
46283;DHT22;32017;43.700;11.820;2023-02-15T00:56:31;-0.10;99.90
46283;DHT22;32017;43.700;11.820;2023-02-15T00:58:52;-0.20;99.90
46283;DHT22;32017;43.700;11.820;2023-02-15T01:01:14;-0.20;99.90
46283;DHT22;32017;43.700;11.820;2023-02-15T01:03:35;0.00;99.90
46283;DHT22;32017;43.700;11.820;2023-02-15T01:05:54;0.00;99.90
46283;DHT22;32017;43.700;11.820;2023-02-15T01:08:15;0.10;99.90
46283;DHT22;32017;43.700;11.820;2023-02-15T01:10:36;0.10;99.90
46283;DHT22;32017;43.700;11.820;2023-02-15T01:12:56;0.20;99.90
46283;DHT22;32017;43.700;11.820;2023-02-15T01:15:16;0.10;99.90
46283;DHT22;32017;43.700;11.820;2023-02-15T01:17:36;0.10;99.90
46283;DHT22;32017;43.700;11.820;2023-02-15T01:19:56;0.10;99.90
46283;DHT22;32017;43.700;11.820;2023-02-15T01:22:17;-0.10;99.90
46283;DHT22;32017;43.700;11.820;2023-02-15T01:24:37;-0.10;99.90
46283;DHT22;32017;43.700;11.820;2023-02-15T01:26:59;0.00;99.90
46283;DHT22;32017;43.700;11.820;2023-02-15T01:29:19;0.00;99.90
46283;DHT22;32017;43.700;11.820;2023-02-15T01:31:39;0.00;99.90
46283;DHT22;32017;43.700;11.820;2023-02-15T01:33:59;0.00;99.90
46283;DHT22;32017;43.700;11.820;2023-02-15T01:36:20;0.00;99.90
46283;DHT22;32017;43.700;11.820;2023-02-15T01:38:39;-0.10;99.90
46283;DHT22;32017;43.700;11.820;2023-02-15T01:40:59;-0.20;99.90
46283;DHT22;32017;43.700;11.820;2023-02-15T01:43:42;-0.30;99.90
46283;DHT22;32017;43.700;11.820;2023-02-15T01:46:02;-0.50;99.90
46283;DHT22;32017;43.700;11.820;2023-02-15T01:48:24;-0.50;99.90
46283;DHT22;32017;43.700;11.820;2023-02-15T01:50:53;-0.60;99.90
46283;DHT22;32017;43.700;11.820;2023-02-15T01:53:34;-0.50;99.90
46283;DHT22;32017;43.700;11.820;2023-02-15T01:56:05;-0.50;99.90
46283;DHT22;32017;43.700;11.820;2023-02-15T01:58:27;-0.60;99.90
46283;DHT22;32017;43.700;11.820;2023-02-15T02:00:48;-0.50;99.90
46283;DHT22;32017;43.700;11.820;2023-02-15T02:03:08;-0.40;99.90
46283;DHT22;32017;43.700;11.820;2023-02-15T02:05:29;-0.50;99.90
46283;DHT22;32017;43.700;11.820;2023-02-15T02:07:52;-0.50;99.90
46283;DHT22;32017;43.700;11.820;2023-02-15T02:10:16;-0.60;99.90
46283;DHT22;32017;43.700;11.820;2023-02-15T02:12:37;-0.60;99.90
46283;DHT22;32017;43.700;11.820;2023-02-15T02:15:00;-0.50;99.90
46283;DHT22;32017;43.700;11.820;2023-02-15T02:17:40;-0.40;99.90
46283;DHT22;32017;43.700;11.820;2023-02-15T02:33:46;-0.60;99.90
46283;DHT22;32017;43.700;11.820;2023-02-15T02:36:22;-0.60;99.90
46283;DHT22;32017;43.700;11.820;2023-02-15T02:43:55;-0.40;99.90
46283;DHT22;32017;43.700;11.820;2023-02-15T02:48:52;-0.60;99.90
46283;DHT22;32017;43.700;11.820;2023-02-15T02:51:16;-0.80;99.90
46283;DHT22;32017;43.700;11.820;2023-02-15T02:53:42;-0.80;99.90
46283;DHT22;32017;43.700;11.820;2023-02-15T02:56:18;-0.90;99.90
46283;DHT22;32017;43.700;11.820;2023-02-15T02:58:46;-1.00;99.90
46283;DHT22;32017;43.700;11.820;2023-02-15T03:01:39;-1.10;99.90
46283;DHT22;32017;43.700;11.820;2023-02-15T03:04:18;-1.20;99.90
46283;DHT22;32017;43.700;11.820;2023-02-15T03:06:50;-1.20;99.90
46283;DHT22;32017;43.700;11.820;2023-02-15T03:09:15;-1.20;99.90
46283;DHT22;32017;43.700;11.820;2023-02-15T03:11:37;-1.20;99.90
46283;DHT22;32017;43.700;11.820;2023-02-15T03:13:57;-1.20;99.90
46283;DHT22;32017;43.700;11.820;2023-02-15T03:16:18;-1.10;99.90
46283;DHT22;32017;43.700;11.820;2023-02-15T03:18:48;-1.10;99.90
46283;DHT22;32017;43.700;11.820;2023-02-15T03:21:12;-1.10;99.90
46283;DHT22;32017;43.700;11.820;2023-02-15T03:23:41;-1.00;99.90
46283;DHT22;32017;43.700;11.820;2023-02-15T03:26:06;-1.00;99.90
46283;DHT22;32017;43.700;11.820;2023-02-15T03:28:43;-1.00;99.90
46283;DHT22;32017;43.700;11.820;2023-02-15T03:31:07;-1.10;99.90
46283;DHT22;32017;43.700;11.820;2023-02-15T03:33:29;-1.20;99.90
46283;DHT22;32017;43.700;11.820;2023-02-15T03:35:55;-1.30;99.90
46283;DHT22;32017;43.700;11.820;2023-02-15T03:38:21;-1.30;99.90
46283;DHT22;32017;43.700;11.820;2023-02-15T03:40:47;-1.20;99.90
46283;DHT22;32017;43.700;11.820;2023-02-15T03:43:54;-1.20;99.90
46283;DHT22;32017;43.700;11.820;2023-02-15T03:48:40;-1.20;99.90
46283;DHT22;32017;43.700;11.820;2023-02-15T03:51:07;-1.20;99.90
46283;DHT22;32017;43.700;11.820;2023-02-15T03:53:46;-1.30;99.90
46283;DHT22;32017;43.700;11.820;2023-02-15T03:56:08;-1.40;99.90
46283;DHT22;32017;43.700;11.820;2023-02-15T03:58:28;-1.50;99.90
46283;DHT22;32017;43.700;11.820;2023-02-15T04:01:29;-1.60;99.90
46283;DHT22;32017;43.700;11.820;2023-02-15T04:04:18;-1.50;99.90
46283;DHT22;32017;43.700;11.820;2023-02-15T04:06:39;-1.50;99.90
46283;DHT22;32017;43.700;11.820;2023-02-15T04:08:59;-1.60;99.90
46283;DHT22;32017;43.700;11.820;2023-02-15T04:11:38;-1.50;99.90
46283;DHT22;32017;43.700;11.820;2023-02-15T04:13:58;-1.50;99.90
46283;DHT22;32017;43.700;11.820;2023-02-15T04:16:18;-1.50;99.90
46283;DHT22;32017;43.700;11.820;2023-02-15T04:18:42;-1.40;99.90
46283;DHT22;32017;43.700;11.820;2023-02-15T04:21:23;-1.50;99.90
46283;DHT22;32017;43.700;11.820;2023-02-15T04:24:01;-1.40;99.90
46283;DHT22;32017;43.700;11.820;2023-02-15T04:26:39;-1.20;99.90
46283;DHT22;32017;43.700;11.820;2023-02-15T04:28:59;-1.30;99.90
46283;DHT22;32017;43.700;11.820;2023-02-15T04:31:19;-1.30;99.90
46283;DHT22;32017;43.700;11.820;2023-02-15T04:33:39;-1.20;99.90
46283;DHT22;32017;43.700;11.820;2023-02-15T04:35:59;-1.30;99.90
46283;DHT22;32017;43.700;11.820;2023-02-15T04:38:20;-1.30;99.90
46283;DHT22;32017;43.700;11.820;2023-02-15T04:40:42;-1.40;99.90
46283;DHT22;32017;43.700;11.820;2023-02-15T04:43:01;-1.50;99.90
46283;DHT22;32017;43.700;11.820;2023-02-15T04:45:24;-1.40;99.90
46283;DHT22;32017;43.700;11.820;2023-02-15T04:47:44;-1.40;99.90
46283;DHT22;32017;43.700;11.820;2023-02-15T04:50:05;-1.40;99.90
46283;DHT22;32017;43.700;11.820;2023-02-15T04:52:25;-1.30;99.90
46283;DHT22;32017;43.700;11.820;2023-02-15T04:54:45;-1.30;99.90
46283;DHT22;32017;43.700;11.820;2023-02-15T04:57:05;-1.30;99.90
46283;DHT22;32017;43.700;11.820;2023-02-15T04:59:25;-1.20;99.90
46283;DHT22;32017;43.700;11.820;2023-02-15T05:01:46;-1.20;99.90
46283;DHT22;32017;43.700;11.820;2023-02-15T05:04:06;-1.40;99.90
46283;DHT22;32017;43.700;11.820;2023-02-15T05:06:26;-1.50;99.90
46283;DHT22;32017;43.700;11.820;2023-02-15T05:08:46;-1.60;99.90
46283;DHT22;32017;43.700;11.820;2023-02-15T05:11:06;-1.70;99.90
46283;DHT22;32017;43.700;11.820;2023-02-15T05:13:26;-1.70;99.90
46283;DHT22;32017;43.700;11.820;2023-02-15T05:15:48;-1.90;99.90
46283;DHT22;32017;43.700;11.820;2023-02-15T05:18:08;-1.90;99.90
46283;DHT22;32017;43.700;11.820;2023-02-15T05:20:28;-2.00;99.90
46283;DHT22;32017;43.700;11.820;2023-02-15T05:22:48;-2.00;99.90
46283;DHT22;32017;43.700;11.820;2023-02-15T05:25:09;-2.00;99.90
46283;DHT22;32017;43.700;11.820;2023-02-15T05:27:47;-2.20;99.90
46283;DHT22;32017;43.700;11.820;2023-02-15T05:30:26;-2.20;99.90
46283;DHT22;32017;43.700;11.820;2023-02-15T05:32:46;-2.20;99.90
46283;DHT22;32017;43.700;11.820;2023-02-15T05:35:06;-2.10;99.90
46283;DHT22;32017;43.700;11.820;2023-02-15T05:37:27;-2.00;99.90
46283;DHT22;32017;43.700;11.820;2023-02-15T05:39:47;-1.90;99.90
46283;DHT22;32017;43.700;11.820;2023-02-15T05:42:10;-2.00;99.90
46283;DHT22;32017;43.700;11.820;2023-02-15T05:44:30;-2.00;99.90
46283;DHT22;32017;43.700;11.820;2023-02-15T05:46:50;-2.00;99.90
46283;DHT22;32017;43.700;11.820;2023-02-15T05:49:09;-2.10;99.90
46283;DHT22;32017;43.700;11.820;2023-02-15T05:51:29;-2.10;99.90
46283;DHT22;32017;43.700;11.820;2023-02-15T05:53:49;-2.00;99.90
46283;DHT22;32017;43.700;11.820;2023-02-15T05:56:10;-2.10;99.90
46283;DHT22;32017;43.700;11.820;2023-02-15T05:58:34;-2.10;99.90
46283;DHT22;32017;43.700;11.820;2023-02-15T06:00:54;-2.10;99.90
46283;DHT22;32017;43.700;11.820;2023-02-15T06:03:14;-2.20;99.90
46283;DHT22;32017;43.700;11.820;2023-02-15T06:05:34;-2.10;99.90
46283;DHT22;32017;43.700;11.820;2023-02-15T06:07:54;-2.10;99.90
46283;DHT22;32017;43.700;11.820;2023-02-15T06:10:14;-2.10;99.90
46283;DHT22;32017;43.700;11.820;2023-02-15T06:12:34;-2.00;99.90
46283;DHT22;32017;43.700;11.820;2023-02-15T06:14:54;-2.00;99.90
46283;DHT22;32017;43.700;11.820;2023-02-15T06:17:14;-2.10;99.90
46283;DHT22;32017;43.700;11.820;2023-02-15T06:19:34;-2.20;99.90
46283;DHT22;32017;43.700;11.820;2023-02-15T06:21:53;-2.30;99.90
46283;DHT22;32017;43.700;11.820;2023-02-15T06:24:13;-2.40;99.90
46283;DHT22;32017;43.700;11.820;2023-02-15T06:26:32;-2.40;99.90
46283;DHT22;32017;43.700;11.820;2023-02-15T06:28:52;-2.30;99.90
46283;DHT22;32017;43.700;11.820;2023-02-15T06:31:12;-2.20;99.90
46283;DHT22;32017;43.700;11.820;2023-02-15T06:33:32;-2.10;99.90
46283;DHT22;32017;43.700;11.820;2023-02-15T06:35:53;-2.00;99.90
46283;DHT22;32017;43.700;11.820;2023-02-15T06:38:13;-2.00;99.90
46283;DHT22;32017;43.700;11.820;2023-02-15T06:40:33;-1.90;99.90
46283;DHT22;32017;43.700;11.820;2023-02-15T06:42:53;-1.90;99.90
46283;DHT22;32017;43.700;11.820;2023-02-15T06:45:13;-1.90;99.90
46283;DHT22;32017;43.700;11.820;2023-02-15T06:47:33;-1.90;99.90
46283;DHT22;32017;43.700;11.820;2023-02-15T06:49:54;-1.90;99.90
46283;DHT22;32017;43.700;11.820;2023-02-15T06:52:14;-1.90;99.90
46283;DHT22;32017;43.700;11.820;2023-02-15T06:54:34;-1.90;99.90
46283;DHT22;32017;43.700;11.820;2023-02-15T06:56:54;-2.00;99.90
46283;DHT22;32017;43.700;11.820;2023-02-15T06:59:14;-2.00;99.90
46283;DHT22;32017;43.700;11.820;2023-02-15T07:01:34;-2.10;99.90
46283;DHT22;32017;43.700;11.820;2023-02-15T07:03:54;-2.00;99.90
46283;DHT22;32017;43.700;11.820;2023-02-15T07:06:14;-1.90;99.90
46283;DHT22;32017;43.700;11.820;2023-02-15T07:08:35;-1.90;99.90
46283;DHT22;32017;43.700;11.820;2023-02-15T07:10:55;-1.90;99.90
46283;DHT22;32017;43.700;11.820;2023-02-15T07:13:38;-1.80;99.90
46283;DHT22;32017;43.700;11.820;2023-02-15T07:15:58;-1.70;99.90
46283;DHT22;32017;43.700;11.820;2023-02-15T07:18:19;-1.70;99.90
46283;DHT22;32017;43.700;11.820;2023-02-15T07:20:39;-1.70;99.90
46283;DHT22;32017;43.700;11.820;2023-02-15T07:23:01;-1.70;99.90
46283;DHT22;32017;43.700;11.820;2023-02-15T07:25:21;-1.70;99.90
46283;DHT22;32017;43.700;11.820;2023-02-15T07:27:41;-1.80;99.90
46283;DHT22;32017;43.700;11.820;2023-02-15T07:30:03;-1.70;99.90
46283;DHT22;32017;43.700;11.820;2023-02-15T07:32:23;-1.60;99.90
46283;DHT22;32017;43.700;11.820;2023-02-15T07:34:46;-1.50;99.90
46283;DHT22;32017;43.700;11.820;2023-02-15T07:37:05;-1.40;99.90
46283;DHT22;32017;43.700;11.820;2023-02-15T07:39:25;-1.40;99.90
46283;DHT22;32017;43.700;11.820;2023-02-15T07:41:45;-1.30;99.90
46283;DHT22;32017;43.700;11.820;2023-02-15T07:44:05;-1.30;99.90
46283;DHT22;32017;43.700;11.820;2023-02-15T07:46:30;-1.20;99.90
46283;DHT22;32017;43.700;11.820;2023-02-15T07:48:50;-1.00;99.90
46283;DHT22;32017;43.700;11.820;2023-02-15T07:51:11;-0.80;99.90
46283;DHT22;32017;43.700;11.820;2023-02-15T07:53:32;-0.70;99.90
46283;DHT22;32017;43.700;11.820;2023-02-15T07:55:52;-0.60;99.90
46283;DHT22;32017;43.700;11.820;2023-02-15T07:58:12;-0.50;99.90
46283;DHT22;32017;43.700;11.820;2023-02-15T08:00:32;-0.30;99.90
46283;DHT22;32017;43.700;11.820;2023-02-15T08:03:12;-0.20;99.90
46283;DHT22;32017;43.700;11.820;2023-02-15T08:05:34;0.00;99.90
46283;DHT22;32017;43.700;11.820;2023-02-15T08:07:54;0.20;99.90
46283;DHT22;32017;43.700;11.820;2023-02-15T08:10:14;0.40;99.90
46283;DHT22;32017;43.700;11.820;2023-02-15T08:12:54;0.60;99.90
46283;DHT22;32017;43.700;11.820;2023-02-15T08:15:14;0.80;99.90
46283;DHT22;32017;43.700;11.820;2023-02-15T08:17:36;0.90;99.90
46283;DHT22;32017;43.700;11.820;2023-02-15T08:19:56;1.10;99.90
46283;DHT22;32017;43.700;11.820;2023-02-15T08:22:17;1.30;99.90
46283;DHT22;32017;43.700;11.820;2023-02-15T08:24:37;1.50;99.90
46283;DHT22;32017;43.700;11.820;2023-02-15T08:26:58;1.70;99.90
46283;DHT22;32017;43.700;11.820;2023-02-15T08:29:20;1.80;99.90
46283;DHT22;32017;43.700;11.820;2023-02-15T08:31:41;1.90;99.90
46283;DHT22;32017;43.700;11.820;2023-02-15T08:34:01;2.10;99.90
46283;DHT22;32017;43.700;11.820;2023-02-15T08:36:28;2.00;99.90
46283;DHT22;32017;43.700;11.820;2023-02-15T08:38:49;2.00;99.90
46283;DHT22;32017;43.700;11.820;2023-02-15T08:41:17;2.10;99.90
46283;DHT22;32017;43.700;11.820;2023-02-15T08:43:38;2.10;99.90
46283;DHT22;32017;43.700;11.820;2023-02-15T08:45:59;2.20;99.90
46283;DHT22;32017;43.700;11.820;2023-02-15T08:48:19;2.40;99.90
46283;DHT22;32017;43.700;11.820;2023-02-15T08:50:39;2.40;99.90
46283;DHT22;32017;43.700;11.820;2023-02-15T08:52:59;2.50;99.90
46283;DHT22;32017;43.700;11.820;2023-02-15T08:55:18;2.50;99.90
46283;DHT22;32017;43.700;11.820;2023-02-15T08:57:39;2.60;99.90
46283;DHT22;32017;43.700;11.820;2023-02-15T09:00:04;2.80;99.90
46283;DHT22;32017;43.700;11.820;2023-02-15T09:02:26;2.90;99.90
46283;DHT22;32017;43.700;11.820;2023-02-15T09:04:46;3.10;99.90
46283;DHT22;32017;43.700;11.820;2023-02-15T09:07:06;3.20;99.40
46283;DHT22;32017;43.700;11.820;2023-02-15T09:09:27;3.40;98.00
46283;DHT22;32017;43.700;11.820;2023-02-15T09:11:49;3.60;97.60
46283;DHT22;32017;43.700;11.820;2023-02-15T09:14:20;3.90;97.30
46283;DHT22;32017;43.700;11.820;2023-02-15T09:16:43;4.10;96.70
46283;DHT22;32017;43.700;11.820;2023-02-15T09:19:08;4.30;96.00
46283;DHT22;32017;43.700;11.820;2023-02-15T09:21:28;4.50;95.30
46283;DHT22;32017;43.700;11.820;2023-02-15T09:23:50;4.70;94.80
46283;DHT22;32017;43.700;11.820;2023-02-15T09:26:12;4.90;94.40
46283;DHT22;32017;43.700;11.820;2023-02-15T09:28:33;5.10;94.70
46283;DHT22;32017;43.700;11.820;2023-02-15T09:30:53;5.30;95.50
46283;DHT22;32017;43.700;11.820;2023-02-15T09:33:13;5.50;95.60
46283;DHT22;32017;43.700;11.820;2023-02-15T09:35:41;5.60;95.60
46283;DHT22;32017;43.700;11.820;2023-02-15T09:38:10;5.80;95.30
46283;DHT22;32017;43.700;11.820;2023-02-15T09:40:38;5.90;95.70
46283;DHT22;32017;43.700;11.820;2023-02-15T09:43:11;6.10;95.00
46283;DHT22;32017;43.700;11.820;2023-02-15T09:48:40;6.50;94.30
46283;DHT22;32017;43.700;11.820;2023-02-15T09:55:40;7.00;93.90
46283;DHT22;32017;43.700;11.820;2023-02-15T10:07:53;8.30;93.00
46283;DHT22;32017;43.700;11.820;2023-02-15T10:18:32;9.50;91.20
46283;DHT22;32017;43.700;11.820;2023-02-15T10:21:29;9.70;90.40
46283;DHT22;32017;43.700;11.820;2023-02-15T10:26:47;11.00;91.20
46283;DHT22;32017;43.700;11.820;2023-02-15T10:29:09;11.90;88.20
46283;DHT22;32017;43.700;11.820;2023-02-15T10:31:51;12.30;87.70
46283;DHT22;32017;43.700;11.820;2023-02-15T10:34:19;12.40;77.80
46283;DHT22;32017;43.700;11.820;2023-02-15T10:40:08;13.00;79.30
46283;DHT22;32017;43.700;11.820;2023-02-15T10:42:11;13.50;77.60
46283;DHT22;32017;43.700;11.820;2023-02-15T10:55:20;14.00;71.90
46283;DHT22;32017;43.700;11.820;2023-02-15T11:00:44;14.20;71.50
46283;DHT22;32017;43.700;11.820;2023-02-15T11:03:35;14.50;69.30
46283;DHT22;32017;43.700;11.820;2023-02-15T11:06:12;14.60;68.30
46283;DHT22;32017;43.700;11.820;2023-02-15T11:08:34;14.90;69.30
46283;DHT22;32017;43.700;11.820;2023-02-15T11:10:59;15.10;67.20
46283;DHT22;32017;43.700;11.820;2023-02-15T11:13:25;15.40;66.90
46283;DHT22;32017;43.700;11.820;2023-02-15T11:16:13;15.90;69.30
46283;DHT22;32017;43.700;11.820;2023-02-15T11:18:57;16.40;63.10
46283;DHT22;32017;43.700;11.820;2023-02-15T11:21:22;16.50;63.70
46283;DHT22;32017;43.700;11.820;2023-02-15T11:23:45;16.60;62.40
46283;DHT22;32017;43.700;11.820;2023-02-15T11:26:26;16.90;62.20
46283;DHT22;32017;43.700;11.820;2023-02-15T11:31:50;17.00;59.10
46283;DHT22;32017;43.700;11.820;2023-02-15T11:36:41;17.30;61.90
46283;DHT22;32017;43.700;11.820;2023-02-15T11:39:11;17.60;60.00
46283;DHT22;32017;43.700;11.820;2023-02-15T11:41:38;17.50;59.20
46283;DHT22;32017;43.700;11.820;2023-02-15T11:46:25;17.70;56.00
46283;DHT22;32017;43.700;11.820;2023-02-15T11:48:45;17.50;54.30
46283;DHT22;32017;43.700;11.820;2023-02-15T11:51:08;17.70;54.50
46283;DHT22;32017;43.700;11.820;2023-02-15T11:53:36;17.70;55.70
46283;DHT22;32017;43.700;11.820;2023-02-15T11:55:57;17.80;53.40
46283;DHT22;32017;43.700;11.820;2023-02-15T12:00:45;17.80;51.70
46283;DHT22;32017;43.700;11.820;2023-02-15T12:03:27;17.90;53.50
46283;DHT22;32017;43.700;11.820;2023-02-15T12:06:00;18.10;53.40
46283;DHT22;32017;43.700;11.820;2023-02-15T12:08:21;18.40;57.60
46283;DHT22;32017;43.700;11.820;2023-02-15T12:11:11;18.10;53.80
46283;DHT22;32017;43.700;11.820;2023-02-15T12:13:35;18.20;54.30
46283;DHT22;32017;43.700;11.820;2023-02-15T12:15:57;18.40;53.70
46283;DHT22;32017;43.700;11.820;2023-02-15T12:21:09;18.20;52.70
46283;DHT22;32017;43.700;11.820;2023-02-15T12:23:31;18.40;53.80
46283;DHT22;32017;43.700;11.820;2023-02-15T12:25:53;18.20;52.60
46283;DHT22;32017;43.700;11.820;2023-02-15T12:28:34;18.20;53.20
46283;DHT22;32017;43.700;11.820;2023-02-15T12:30:58;18.30;52.40
46283;DHT22;32017;43.700;11.820;2023-02-15T12:34:02;18.40;53.40
46283;DHT22;32017;43.700;11.820;2023-02-15T12:36:21;18.50;52.90
46283;DHT22;32017;43.700;11.820;2023-02-15T12:38:41;18.40;52.50
46283;DHT22;32017;43.700;11.820;2023-02-15T12:41:05;18.60;52.70
46283;DHT22;32017;43.700;11.820;2023-02-15T12:43:25;18.50;53.00
46283;DHT22;32017;43.700;11.820;2023-02-15T12:45:45;18.70;53.40
46283;DHT22;32017;43.700;11.820;2023-02-15T12:50:33;18.80;53.90
46283;DHT22;32017;43.700;11.820;2023-02-15T12:53:07;19.00;53.50
46283;DHT22;32017;43.700;11.820;2023-02-15T12:55:28;18.80;53.90
46283;DHT22;32017;43.700;11.820;2023-02-15T12:58:04;19.20;52.30
46283;DHT22;32017;43.700;11.820;2023-02-15T13:00:27;19.30;53.10
46283;DHT22;32017;43.700;11.820;2023-02-15T13:02:51;19.10;53.60
46283;DHT22;32017;43.700;11.820;2023-02-15T13:05:55;18.70;52.70
46283;DHT22;32017;43.700;11.820;2023-02-15T13:10:40;19.00;54.70
46283;DHT22;32017;43.700;11.820;2023-02-15T13:13:00;18.90;55.50
46283;DHT22;32017;43.700;11.820;2023-02-15T13:15:35;18.90;56.70
46283;DHT22;32017;43.700;11.820;2023-02-15T13:17:58;19.00;55.00
46283;DHT22;32017;43.700;11.820;2023-02-15T13:20:22;18.60;55.80
46283;DHT22;32017;43.700;11.820;2023-02-15T13:22:47;18.90;56.10
46283;DHT22;32017;43.700;11.820;2023-02-15T13:25:19;19.00;56.90
46283;DHT22;32017;43.700;11.820;2023-02-15T13:27:42;19.00;56.20
46283;DHT22;32017;43.700;11.820;2023-02-15T13:30:04;19.00;55.90
46283;DHT22;32017;43.700;11.820;2023-02-15T13:32:38;19.00;56.10
46283;DHT22;32017;43.700;11.820;2023-02-15T13:35:01;19.00;54.90
46283;DHT22;32017;43.700;11.820;2023-02-15T13:37:49;19.00;55.60
46283;DHT22;32017;43.700;11.820;2023-02-15T13:51:33;19.40;53.00
46283;DHT22;32017;43.700;11.820;2023-02-15T13:56:46;19.60;52.60
46283;DHT22;32017;43.700;11.820;2023-02-15T14:01:57;19.60;53.70
46283;DHT22;32017;43.700;11.820;2023-02-15T14:10:43;19.20;54.00
46283;DHT22;32017;43.700;11.820;2023-02-15T14:15:50;19.20;53.80
46283;DHT22;32017;43.700;11.820;2023-02-15T14:31:31;19.20;55.80
46283;DHT22;32017;43.700;11.820;2023-02-15T14:33:56;19.00;56.10
46283;DHT22;32017;43.700;11.820;2023-02-15T14:36:18;19.00;56.70
46283;DHT22;32017;43.700;11.820;2023-02-15T14:46:34;18.80;58.30
46283;DHT22;32017;43.700;11.820;2023-02-15T14:49:26;18.70;57.90
46283;DHT22;32017;43.700;11.820;2023-02-15T14:54:57;18.60;58.00
46283;DHT22;32017;43.700;11.820;2023-02-15T14:59:22;18.40;57.80
46283;DHT22;32017;43.700;11.820;2023-02-15T15:01:57;18.30;57.20
46283;DHT22;32017;43.700;11.820;2023-02-15T15:09:36;18.10;58.40
46283;DHT22;32017;43.700;11.820;2023-02-15T15:14:43;17.90;58.20
46283;DHT22;32017;43.700;11.820;2023-02-15T15:17:05;17.80;58.10
46283;DHT22;32017;43.700;11.820;2023-02-15T15:19:56;17.80;59.00
46283;DHT22;32017;43.700;11.820;2023-02-15T15:22:18;17.70;58.60
46283;DHT22;32017;43.700;11.820;2023-02-15T15:29:56;17.50;59.90
46283;DHT22;32017;43.700;11.820;2023-02-15T15:32:19;17.40;60.40
46283;DHT22;32017;43.700;11.820;2023-02-15T15:35:13;17.30;61.10
46283;DHT22;32017;43.700;11.820;2023-02-15T15:50:42;16.90;62.20
46283;DHT22;32017;43.700;11.820;2023-02-15T15:53:03;16.80;63.20
46283;DHT22;32017;43.700;11.820;2023-02-15T15:55:25;16.70;63.20
46283;DHT22;32017;43.700;11.820;2023-02-15T15:57:50;16.70;63.30
46283;DHT22;32017;43.700;11.820;2023-02-15T16:03:04;16.50;63.80
46283;DHT22;32017;43.700;11.820;2023-02-15T16:05:24;16.40;64.50
46283;DHT22;32017;43.700;11.820;2023-02-15T16:07:44;16.20;64.30
46283;DHT22;32017;43.700;11.820;2023-02-15T16:10:19;16.10;64.80
46283;DHT22;32017;43.700;11.820;2023-02-15T16:12:39;15.90;65.30
46283;DHT22;32017;43.700;11.820;2023-02-15T16:15:21;15.80;65.00
46283;DHT22;32017;43.700;11.820;2023-02-15T16:17:44;15.80;65.30
46283;DHT22;32017;43.700;11.820;2023-02-15T16:20:15;15.60;66.40
46283;DHT22;32017;43.700;11.820;2023-02-15T16:22:38;15.40;66.40
46283;DHT22;32017;43.700;11.820;2023-02-15T16:27:36;15.10;67.10
46283;DHT22;32017;43.700;11.820;2023-02-15T16:29:57;15.00;66.90
46283;DHT22;32017;43.700;11.820;2023-02-15T16:34:38;14.90;67.30
46283;DHT22;32017;43.700;11.820;2023-02-15T16:37:18;14.90;68.00
46283;DHT22;32017;43.700;11.820;2023-02-15T16:39:41;14.90;67.80
46283;DHT22;32017;43.700;11.820;2023-02-15T16:42:03;14.90;68.10
46283;DHT22;32017;43.700;11.820;2023-02-15T16:44:23;14.70;68.40
46283;DHT22;32017;43.700;11.820;2023-02-15T16:46:49;14.70;68.20
46283;DHT22;32017;43.700;11.820;2023-02-15T16:49:25;14.60;68.30
46283;DHT22;32017;43.700;11.820;2023-02-15T16:51:58;14.60;68.30
46283;DHT22;32017;43.700;11.820;2023-02-15T16:54:19;14.70;68.50
46283;DHT22;32017;43.700;11.820;2023-02-15T16:56:43;14.50;67.70
46283;DHT22;32017;43.700;11.820;2023-02-15T16:59:05;14.30;67.10
46283;DHT22;32017;43.700;11.820;2023-02-15T17:01:31;14.10;67.80
46283;DHT22;32017;43.700;11.820;2023-02-15T17:04:21;14.00;68.30
46283;DHT22;32017;43.700;11.820;2023-02-15T17:07:03;13.80;68.90
46283;DHT22;32017;43.700;11.820;2023-02-15T17:09:23;13.70;66.60
46283;DHT22;32017;43.700;11.820;2023-02-15T17:11:45;13.40;66.70
46283;DHT22;32017;43.700;11.820;2023-02-15T17:16:32;13.30;65.80
46283;DHT22;32017;43.700;11.820;2023-02-15T17:18:53;13.40;66.30
46283;DHT22;32017;43.700;11.820;2023-02-15T17:21:20;13.30;66.70
46283;DHT22;32017;43.700;11.820;2023-02-15T17:23:43;13.10;66.70
46283;DHT22;32017;43.700;11.820;2023-02-15T17:26:11;12.90;68.50
46283;DHT22;32017;43.700;11.820;2023-02-15T17:28:31;12.60;69.10
46283;DHT22;32017;43.700;11.820;2023-02-15T17:30:53;12.30;69.60
46283;DHT22;32017;43.700;11.820;2023-02-15T17:33:35;12.20;70.60
46283;DHT22;32017;43.700;11.820;2023-02-15T17:38:25;11.80;70.20
46283;DHT22;32017;43.700;11.820;2023-02-15T17:40:45;11.80;70.60
46283;DHT22;32017;43.700;11.820;2023-02-15T17:43:05;11.60;71.20
46283;DHT22;32017;43.700;11.820;2023-02-15T17:45:44;11.50;71.70
46283;DHT22;32017;43.700;11.820;2023-02-15T17:48:12;11.50;71.80
46283;DHT22;32017;43.700;11.820;2023-02-15T17:50:36;11.40;72.50
46283;DHT22;32017;43.700;11.820;2023-02-15T17:52:57;11.10;73.00
46283;DHT22;32017;43.700;11.820;2023-02-15T17:55:20;10.80;74.20
46283;DHT22;32017;43.700;11.820;2023-02-15T17:58:02;10.60;75.00
46283;DHT22;32017;43.700;11.820;2023-02-15T18:00:22;10.30;75.60
46283;DHT22;32017;43.700;11.820;2023-02-15T18:03:01;10.10;76.90
46283;DHT22;32017;43.700;11.820;2023-02-15T18:05:39;10.00;76.80